Time;durP1;ratioP1;P1;durP2;ratioP2;P2;SDS_P1;SDS_P2;PMS_P1;PMS_P2;Temp;Humidity;BMP_temperature;BMP_pressure;BME280_temperature;BME280_humidity;BME280_pressure;Samples;Min_cycle;Max_cycle;Signal;HPM_P1;HPM_P2
2023/01/24 17:08:10;;;;;;;13.65;7.30;;;2.20;99.90;;;;;;5150403;27;20319;-62
2023/01/24 17:10:36;;;;;;;14.60;8.40;;;2.20;99.90;;;;;;5130522;28;20024;-63
2023/01/24 17:13:03;;;;;;;15.30;8.57;;;2.30;99.90;;;;;;5121417;28;20096;-64
2023/01/24 17:15:29;;;;;;;20.38;10.18;;;2.40;99.90;;;;;;5118264;28;20100;-63
2023/01/24 17:17:54;;;;;;;18.92;9.68;;;2.50;99.90;;;;;;5120599;28;20111;-63
2023/01/24 17:20:20;;;;;;;16.45;9.95;;;2.50;99.90;;;;;;5118127;28;20041;-63
2023/01/24 17:22:46;;;;;;;17.13;9.73;;;2.60;99.90;;;;;;5118736;28;20379;-63
2023/01/24 17:25:11;;;;;;;20.27;10.40;;;2.60;99.90;;;;;;5119933;28;20024;-63
2023/01/24 17:27:37;;;;;;;17.92;10.18;;;2.70;99.90;;;;;;5111662;28;20110;-64
2023/01/24 17:30:03;;;;;;;17.10;9.90;;;2.70;99.90;;;;;;5111929;28;20476;-63
2023/01/24 17:32:31;;;;;;;21.38;11.18;;;2.80;99.90;;;;;;5109367;28;20066;-64
2023/01/24 17:34:57;;;;;;;20.25;10.52;;;2.90;99.90;;;;;;5118432;28;20027;-63
2023/01/24 17:37:23;;;;;;;24.02;11.85;;;2.90;99.90;;;;;;5128100;28;20027;-64
2023/01/24 17:39:49;;;;;;;22.95;11.98;;;2.90;99.90;;;;;;5117410;28;20380;-65
2023/01/24 17:42:16;;;;;;;21.00;11.57;;;3.00;99.90;;;;;;5101913;28;20027;-65
2023/01/24 17:44:41;;;;;;;20.00;10.25;;;3.00;99.90;;;;;;5128826;28;20179;-66
2023/01/24 17:47:07;;;;;;;20.90;11.02;;;3.00;99.90;;;;;;5129119;28;20621;-63
2023/01/24 17:49:32;;;;;;;16.30;9.00;;;3.00;99.90;;;;;;5128539;28;20453;-63
2023/01/24 17:51:58;;;;;;;18.40;9.93;;;3.00;99.90;;;;;;5126997;28;20036;-63
2023/01/24 17:54:24;;;;;;;15.43;9.38;;;3.00;99.90;;;;;;5128840;28;20087;-63
2023/01/24 17:56:49;;;;;;;19.65;10.02;;;3.00;99.90;;;;;;5128315;28;20027;-64
2023/01/24 17:59:15;;;;;;;14.32;8.05;;;3.00;99.90;;;;;;5128924;28;20417;-64
2023/01/24 18:01:40;;;;;;;18.48;9.98;;;3.00;99.90;;;;;;5127976;28;20023;-64
2023/01/24 18:04:06;;;;;;;16.20;8.70;;;3.00;99.90;;;;;;5110260;28;20168;-65
2023/01/24 18:06:32;;;;;;;16.90;9.25;;;3.00;99.90;;;;;;5123826;28;20129;-63
2023/01/24 18:08:57;;;;;;;17.33;10.00;;;3.00;99.90;;;;;;5106871;28;20070;-63
2023/01/24 18:11:23;;;;;;;15.68;9.13;;;3.00;99.90;;;;;;5107756;28;20484;-63
2023/01/24 18:13:49;;;;;;;16.30;9.13;;;3.00;99.90;;;;;;5107697;28;20031;-61
2023/01/24 18:16:18;;;;;;;15.60;9.10;;;2.90;99.90;;;;;;5107386;28;20020;-61
2023/01/24 18:18:43;;;;;;;15.90;8.55;;;2.90;99.90;;;;;;5098995;28;20107;-62
2023/01/24 18:21:10;;;;;;;13.63;8.63;;;2.90;99.90;;;;;;5094213;28;20468;-62
2023/01/24 18:23:36;;;;;;;13.65;7.55;;;2.90;99.90;;;;;;5075238;28;20072;-61
2023/01/24 18:26:02;;;;;;;17.95;9.90;;;2.90;99.90;;;;;;5094202;28;20107;-61
2023/01/24 18:28:27;;;;;;;15.25;7.70;;;2.90;99.90;;;;;;5094066;28;20020;-60
2023/01/24 18:30:53;;;;;;;15.20;7.82;;;3.00;99.90;;;;;;5094184;28;20047;-62
2023/01/24 18:33:19;;;;;;;16.48;8.93;;;3.00;99.90;;;;;;5098226;28;20027;-61
2023/01/24 18:35:44;;;;;;;14.98;8.57;;;3.00;99.90;;;;;;5114307;28;20019;-62
2023/01/24 18:38:10;;;;;;;15.20;8.88;;;2.90;99.90;;;;;;5106876;28;20020;-61
2023/01/24 18:40:35;;;;;;;15.38;9.00;;;3.00;99.90;;;;;;5094822;28;20016;-61
2023/01/24 18:43:01;;;;;;;14.98;8.70;;;2.90;99.90;;;;;;5091753;28;20028;-60
2023/01/24 18:45:26;;;;;;;16.20;7.93;;;2.90;99.90;;;;;;5111829;28;20035;-61
2023/01/24 18:47:52;;;;;;;14.10;8.23;;;2.90;99.90;;;;;;5113914;28;20036;-62
2023/01/24 18:50:18;;;;;;;15.38;8.32;;;2.90;99.90;;;;;;5109938;28;20042;-60
2023/01/24 18:52:44;;;;;;;14.32;8.73;;;2.90;99.90;;;;;;5098051;28;20418;-62
2023/01/24 18:55:11;;;;;;;16.95;8.98;;;2.90;99.90;;;;;;5076082;28;20027;-61
2023/01/24 18:57:39;;;;;;;14.20;8.43;;;2.90;99.90;;;;;;5113676;28;20077;-61
2023/01/24 19:00:05;;;;;;;16.13;8.98;;;2.90;99.90;;;;;;5107505;28;20040;-61
2023/01/24 19:02:31;;;;;;;14.93;9.02;;;2.90;99.90;;;;;;5075316;28;20028;-61
2023/01/24 19:04:59;;;;;;;15.48;9.40;;;2.90;99.90;;;;;;5092360;28;20032;-61
2023/01/24 19:07:24;;;;;;;15.80;8.40;;;2.90;99.90;;;;;;5094332;28;20462;-61
2023/01/24 19:09:50;;;;;;;16.55;9.27;;;2.90;99.90;;;;;;5092974;28;20030;-62
2023/01/24 19:12:16;;;;;;;16.55;9.18;;;2.90;99.90;;;;;;5092574;28;20030;-62
2023/01/24 19:14:41;;;;;;;17.98;9.77;;;2.80;99.90;;;;;;5093299;28;20491;-61
2023/01/24 19:17:08;;;;;;;18.23;10.05;;;2.80;99.90;;;;;;5091218;28;20039;-61
2023/01/24 19:19:33;;;;;;;17.10;9.65;;;2.80;99.90;;;;;;5111101;28;20085;-61
2023/01/24 19:21:59;;;;;;;14.90;8.30;;;2.80;99.90;;;;;;5113113;28;20036;-62
2023/01/24 19:24:26;;;;;;;16.58;9.02;;;2.80;99.90;;;;;;5111685;28;20012;-61
2023/01/24 19:26:52;;;;;;;15.23;8.90;;;2.80;99.90;;;;;;5100800;28;20051;-61
2023/01/24 19:29:17;;;;;;;17.63;9.60;;;2.80;99.90;;;;;;5112616;28;20034;-62
2023/01/24 19:31:43;;;;;;;15.30;8.98;;;2.90;99.90;;;;;;5100696;28;20015;-62
2023/01/24 19:34:09;;;;;;;16.50;9.25;;;2.80;99.90;;;;;;5093269;28;20024;-62
2023/01/24 19:36:34;;;;;;;15.98;9.48;;;2.90;99.90;;;;;;5074436;28;20034;-61
2023/01/24 19:39:01;;;;;;;14.35;8.93;;;2.80;99.90;;;;;;5092285;28;20027;-61
2023/01/24 19:41:27;;;;;;;18.75;10.40;;;2.80;99.90;;;;;;5093396;28;20020;-61
2023/01/24 19:43:53;;;;;;;18.90;11.50;;;2.90;99.90;;;;;;5098180;28;20031;-61
2023/01/24 19:46:19;;;;;;;18.50;10.18;;;2.80;99.90;;;;;;5113131;28;20034;-62
2023/01/24 19:48:50;;;;;;;18.15;10.20;;;2.90;99.90;;;;;;5094284;28;20019;-62
2023/01/24 19:51:16;;;;;;;19.00;10.57;;;2.90;99.90;;;;;;5113514;28;20011;-62
2023/01/24 19:53:42;;;;;;;17.88;10.48;;;2.90;99.90;;;;;;5112508;28;20081;-61
2023/01/24 19:56:09;;;;;;;18.15;10.27;;;2.90;99.90;;;;;;5104853;28;20048;-62
2023/01/24 19:58:35;;;;;;;18.35;9.85;;;2.90;99.90;;;;;;5092244;28;20016;-62
2023/01/24 20:01:16;;;;;;;19.23;10.05;;;2.90;99.90;;;;;;5092689;28;20468;-61
2023/01/24 20:03:43;;;;;;;17.27;9.57;;;2.90;99.90;;;;;;5092552;28;20021;-61
2023/01/24 20:06:17;;;;;;;18.38;9.25;;;2.80;99.90;;;;;;5092091;28;20386;-61
2023/01/24 20:08:53;;;;;;;18.40;10.95;;;2.80;99.90;;;;;;5091395;28;20057;-63
2023/01/24 20:11:20;;;;;;;17.90;11.00;;;2.80;99.90;;;;;;5091866;28;20025;-61
2023/01/24 20:13:46;;;;;;;18.00;11.27;;;2.80;99.90;;;;;;5096155;28;20054;-62
2023/01/24 20:16:24;;;;;;;20.80;11.15;;;2.70;99.90;;;;;;5111666;28;20055;-61
2023/01/24 20:18:58;;;;;;;17.10;10.13;;;2.70;99.90;;;;;;5112332;28;20376;-62
2023/01/24 20:21:26;;;;;;;18.38;10.55;;;2.70;99.90;;;;;;5112565;28;20107;-61
2023/01/24 20:23:54;;;;;;;17.75;9.38;;;2.70;99.90;;;;;;5107681;28;20030;-62
2023/01/24 20:26:20;;;;;;;18.05;9.90;;;2.70;99.90;;;;;;5091875;28;20062;-62
2023/01/24 20:28:46;;;;;;;18.13;10.65;;;2.70;99.90;;;;;;5103651;28;20020;-62
2023/01/24 20:31:13;;;;;;;19.20;10.35;;;2.70;99.90;;;;;;5101991;28;20488;-61
2023/01/24 20:33:39;;;;;;;20.17;11.27;;;2.70;99.90;;;;;;5111916;28;20034;-62
2023/01/24 20:36:08;;;;;;;21.90;11.25;;;2.70;99.90;;;;;;5106766;28;20020;-62
2023/01/24 20:38:34;;;;;;;24.17;12.77;;;2.60;99.90;;;;;;5090531;28;20030;-62
2023/01/24 20:41:02;;;;;;;22.73;11.90;;;2.70;99.90;;;;;;5091839;28;20499;-62
2023/01/24 20:43:28;;;;;;;23.48;12.65;;;2.70;99.90;;;;;;5091337;28;20028;-62
2023/01/24 20:46:00;;;;;;;20.27;11.27;;;2.70;99.90;;;;;;5091993;28;20055;-62
2023/01/24 20:48:25;;;;;;;22.05;11.40;;;2.70;99.90;;;;;;5105022;28;20192;-62
2023/01/24 20:50:59;;;;;;;20.42;10.68;;;2.70;99.90;;;;;;5092913;28;20534;-62
2023/01/24 20:53:25;;;;;;;23.05;11.35;;;2.70;99.90;;;;;;5112055;28;20417;-62
2023/01/24 20:56:02;;;;;;;19.13;10.18;;;2.70;99.90;;;;;;5093912;28;20178;-62
2023/01/24 20:58:28;;;;;;;19.65;10.98;;;2.70;99.90;;;;;;5109794;28;20114;-62
2023/01/24 21:01:04;;;;;;;21.95;11.85;;;2.70;99.90;;;;;;5111876;28;20028;-62
2023/01/24 21:03:30;;;;;;;26.30;13.05;;;2.70;99.90;;;;;;5110198;28;20024;-62
2023/01/24 21:06:08;;;;;;;21.90;11.85;;;2.60;99.90;;;;;;5109164;28;20023;-62
2023/01/24 21:08:35;;;;;;;22.05;11.85;;;2.60;99.90;;;;;;5111959;28;20067;-62
2023/01/24 21:11:01;;;;;;;20.65;11.68;;;2.60;99.90;;;;;;5111963;28;20410;-62
2023/01/24 21:13:29;;;;;;;23.10;11.57;;;2.60;99.90;;;;;;5111107;28;20106;-62
2023/01/24 21:15:55;;;;;;;20.58;11.68;;;2.60;99.90;;;;;;5111757;28;20058;-62
2023/01/24 21:18:21;;;;;;;21.35;11.75;;;2.60;99.90;;;;;;5111879;28;20468;-62
